Morbach UL

DE-0394 · Bade-Wurtemberg, Allemagne

METAR anciennes DE-0394 · Morbach UL

Tu vois ci-dessous les METAR des derniers jours. Sélectionne une année pour parcourir les METAR plus anciens, à partir de l'année 2007.

15 avril 2024

Temps Code Temps Temp. Vue Base cloud Vent METAR/SPECI
11:50
V
13 °C 10 km+ 4.900 ft 240° 240° 9 kt METAR EDTY 150950Z 24009KT 210V280 9999 FEW015 SCT018 BKN049 13/09 Q1012
11:20
V
12 °C 10 km+ - 230° 230° 6 kt METAR EDTY 150920Z 23006KT 9999 FEW017 12/09 Q1012
10:50
V
11 °C 10 km+ - 240° 240° 6 kt METAR EDTY 150850Z 24006KT 9999 -RA FEW034 11/09 Q1012
10:20
V
11 °C 10 km+ - 280° 280° 8 kt METAR EDTY 150820Z 28008KT 9999 -RA FEW018 11/09 Q1013
09:50
M
12 °C 10 km+ 2.300 ft 270° 270° 6 kt METAR EDTY 150750Z 27006KT 240V300 9999 BKN023 12/09 Q1013
09:20
V
12 °C 10 km+ - 250° 250° 6 kt METAR EDTY 150720Z 25006KT 9999 SCT025 12/09 Q1013
08:50
V
12 °C 10 km+ - 240° 240° 6 kt METAR EDTY 150650Z 24006KT 9999 FEW031 12/09 Q1013
08:20
V
12 °C 10 km+ 4.600 ft 250° 250° 5 kt METAR EDTY 150620Z 25005KT 220V290 9999 FEW025 BKN046TCU 12/09 Q1013
07:50
V
11 °C 10 km+ - 240° 240° 6 kt METAR EDTY 150550Z 24006KT 9999 -SHRA FEW049TCU 11/09 Q1013
07:20
V
11 °C 10 km+ - 230° 230° 4 kt METAR EDTY 150520Z 23004KT 200V260 9999 -SHRA SCT060TCU 11/10 Q1013
06:50
V
11 °C 10 km+ - 240° 240° 3 kt METAR EDTY 150450Z 24003KT 210V310 9999 SCT060TCU 11/10 Q1013
06:20
V
12 °C 10 km+ - 250° 250° 5 kt METAR EDTY 150420Z 25005KT 9999 -SHRA SCT070TCU 12/10 Q1013
05:50
V
12 °C 10 km+ 7.800 ft 230° 230° 6 kt METAR EDTY 150350Z AUTO 23006KT 9999 // FEW034/// BKN078/// OVC088/// 12/10 Q1013
05:20
V
13 °C 10 km+ 11.000 ft 200° 200° 3 kt METAR EDTY 150320Z AUTO 20003KT 170V240 9999 // OVC110/// 13/10 Q1013
04:50
V
13 °C 10 km+ 11.000 ft 240° 240° 5 kt METAR EDTY 150250Z AUTO 24005KT 210V300 9999 // FEW050/// SCT096/// OVC110/// 13/10 Q1013
04:20
V
13 °C 10 km+ 6.500 ft 240° 240° 3 kt METAR EDTY 150220Z AUTO 24003KT 200V280 9999 // BKN065/// BKN075/// OVC140/// 13/11 Q1013
03:50
V
13 °C 10 km+ 5.200 ft 200° 200° 3 kt METAR EDTY 150150Z AUTO 20003KT 150V230 9999 // BKN052/// BKN140/// OVC240/// 13/11 Q1014
03:20
V
13 °C 10 km+ 4.200 ft 240° 240° 3 kt METAR EDTY 150120Z AUTO 24003KT 150V290 9999 // BKN042/// OVC057/// 13/11 Q1014
02:50
V
13 °C 10 km+ 4.300 ft 270° 270° 3 kt METAR EDTY 150050Z AUTO 27003KT 240V310 9999 // BKN043/// OVC052/// 13/11 Q1014
02:20
V
13 °C 10 km+ 4.800 ft 220° 220° 5 kt METAR EDTY 150020Z AUTO 22005KT 180V240 9999 // SCT041/// BKN048/// OVC086/// 13/11 Q1015
01:50
V
13 °C 10 km+ 6.000 ft Var Var 2 kt METAR EDTY 142350Z AUTO VRB02KT 9999 // BKN060/// BKN110/// 13/10 Q1015
01:20
V
13 °C 10 km+ 11.000 ft 230° 230° 5 kt METAR EDTY 142320Z AUTO 23005KT 9999 // FEW049/// SCT073/// BKN110/// 13/10 Q1015
00:50
V
13 °C 10 km+ 24.000 ft 220° 220° 5 kt METAR EDTY 142250Z AUTO 22005KT 9999 // FEW050/// SCT110/// BKN240/// 13/10 Q1015
00:20
V
14 °C 10 km+ - 220° 220° 4 kt METAR EDTY 142220Z AUTO 22004KT 9999 // FEW061/// 14/10 Q1015

14 avril 2024

Temps Code Temps Temp. Vue Base cloud Vent METAR/SPECI
23:50
V
15 °C 10 km+ - 200° 200° 5 kt METAR EDTY 142150Z AUTO 20005KT 9999 // FEW067/// 15/10 Q1015
23:20
V
15 °C 10 km+ - 220° 220° 4 kt METAR EDTY 142120Z AUTO 22004KT 9999 // FEW072/// 15/10 Q1016
22:50
V
15 °C 10 km+ - 260° 260° 4 kt METAR EDTY 142050Z AUTO 26004KT 9999 // FEW075/// 15/10 Q1017
22:20
V
17 °C 10 km+ - 210° 210° 3 kt METAR EDTY 142020Z AUTO 21003KT 9999 // NCD 17/10 Q1017
21:50
V
17 °C 10 km+ - 210° 210° 4 kt METAR EDTY 141950Z AUTO 21004KT 9999 // NCD 17/11 Q1017
21:20
V
18 °C 10 km+ - 220° 220° 3 kt METAR EDTY 141920Z AUTO 22003KT 170V260 9999 // FEW210/// 18/11 Q1018
20:50
V
18 °C 10 km+ - 170° 170° 3 kt METAR EDTY 141850Z AUTO 17003KT 9999 // NCD 18/11 Q1018
20:20
V
18 °C 10 km+ - Var Var 2 kt METAR EDTY 141820Z AUTO VRB02KT 9999 // NCD 18/11 Q1018
19:50
V
19 °C 10 km+ - 290° 290° 5 kt METAR EDTY 141750Z 29005KT CAVOK 19/12 Q1018
19:20
V
19 °C 10 km+ - 290° 290° 5 kt METAR EDTY 141720Z 29005KT CAVOK 19/12 Q1018
18:50
V
21 °C 10 km+ - 280° 280° 7 kt METAR EDTY 141650Z 28007KT 240V310 CAVOK 21/11 Q1018
18:20
V
21 °C 10 km+ - 290° 290° 5 kt METAR EDTY 141620Z 29005KT CAVOK 21/12 Q1019
17:50
V
21 °C 10 km+ - 280° 280° 7 kt METAR EDTY 141550Z 28007KT CAVOK 21/12 Q1019
17:20
V
21 °C 10 km+ - 260° 260° 8 kt METAR EDTY 141520Z 26008KT 230V300 9999 FEW046 21/11 Q1019
16:50
V
21 °C 10 km+ - 280° 280° 9 kt METAR EDTY 141450Z 28009KT 250V310 9999 FEW046 21/11 Q1020
16:20
V
21 °C 10 km+ - 280° 280° 9 kt METAR EDTY 141420Z 28009KT 9999 FEW046 21/11 Q1020
15:50
V
21 °C 10 km+ - 290° 290° 14 kt METAR EDTY 141350Z 29014KT CAVOK 21/11 Q1020
15:20
V
21 °C 10 km+ - 290° 290° 13 kt METAR EDTY 141320Z 29013KT 9999 SCT048 21/11 Q1021
14:50
V
22 °C 10 km+ - 280° 280° 9 kt METAR EDTY 141250Z 28009KT 9999 FEW044 22/12 Q1021
14:20
V
21 °C 10 km+ - 300° 300° 10 kt METAR EDTY 141220Z 30010KT 270V330 9999 SCT042 21/11 Q1021
13:50
V
21 °C 10 km+ - 250° 250° 13 kt METAR EDTY 141150Z 25013KT 230V290 9999 SCT041 21/12 Q1021
13:20
V
20 °C 10 km+ - 270° 270° 8 kt METAR EDTY 141120Z 27008KT 240V300 9999 SCT039 20/12 Q1022
12:50
V
20 °C 10 km+ - 270° 270° 10 kt METAR EDTY 141050Z 27010KT 9999 SCT038 20/11 Q1022
12:20
V
20 °C 10 km+ - 260° 260° 8 kt METAR EDTY 141020Z 26008KT 230V310 9999 SCT039 20/12 Q1022
11:50
V
19 °C 10 km+ - 270° 270° 10 kt METAR EDTY 140950Z 27010KT 9999 SCT037 19/10 Q1023
11:20
V
19 °C 10 km+ - 280° 280° 9 kt METAR EDTY 140920Z 28009KT 250V320 9999 SCT036 19/11 Q1023
10:50
V
19 °C 10 km+ - 290° 290° 7 kt METAR EDTY 140850Z 29007KT 260V320 9999 FEW036 19/11 Q1023
10:20
V
19 °C 10 km+ - 230° 230° 5 kt METAR EDTY 140820Z 23005KT 200V260 CAVOK 19/12 Q1022
09:50
V
18 °C 10 km+ - 220° 220° 5 kt METAR EDTY 140750Z 22005KT 190V250 CAVOK 18/11 Q1022
09:20
V
17 °C 10 km+ - 230° 230° 4 kt METAR EDTY 140720Z 23004KT 190V260 CAVOK 17/10 Q1022
08:50
V
16 °C 10 km+ - 210° 210° 4 kt METAR EDTY 140650Z 21004KT CAVOK 16/09 Q1023
08:20
V
15 °C 10 km+ - 210° 210° 4 kt METAR EDTY 140620Z 21004KT CAVOK 15/09 Q1022
07:50
V
14 °C 10 km+ - 220° 220° 5 kt METAR EDTY 140550Z AUTO 22005KT 9999 // NCD 14/08 Q1022
07:20
V
10 °C 10 km+ - Var Var 1 kt METAR EDTY 140520Z AUTO VRB01KT 9999 // NCD 10/08 Q1022
06:50
V
8 °C 10 km+ - Var Var 2 kt METAR EDTY 140450Z AUTO VRB02KT 9999 // NCD 08/07 Q1022
06:20
V
10 °C 10 km+ - 210° 210° 2 kt METAR EDTY 140420Z AUTO 21002KT 9999 // NCD 10/08 Q1022
05:50
V
9 °C 10 km+ - 360° 360° 0 kt METAR EDTY 140350Z AUTO 00000KT 9999 // NCD 09/07 Q1022
05:20
V
10 °C 10 km+ - 200° 200° 3 kt METAR EDTY 140320Z AUTO 20003KT 9999 // NCD 10/07 Q1022
04:50
V
11 °C 10 km+ - 210° 210° 2 kt METAR EDTY 140250Z AUTO 21002KT 9999 // NCD 11/07 Q1022
04:20
V
10 °C 10 km+ - 360° 360° 0 kt METAR EDTY 140220Z AUTO 00000KT 9999 // NCD 10/08 Q1022
03:50
V
15 °C 10 km+ - 200° 200° 5 kt METAR EDTY 140150Z AUTO 20005KT 170V230 9999 // NCD 15/09 Q1022
03:20
V
15 °C 10 km+ - 200° 200° 5 kt METAR EDTY 140120Z AUTO 20005KT 9999 // NCD 15/09 Q1022
02:50
V
14 °C 10 km+ - 200° 200° 6 kt METAR EDTY 140050Z AUTO 20006KT 9999 // NCD 14/10 Q1022
02:20
V
10 °C 10 km+ - Var Var 1 kt METAR EDTY 140020Z AUTO VRB01KT 9999 // NCD 10/09 Q1022
01:50
V
11 °C 10 km+ - Var Var 2 kt METAR EDTY 132350Z AUTO VRB02KT 9999 // NCD 11/09 Q1023
01:20
V
12 °C 10 km+ - Var Var 1 kt METAR EDTY 132320Z AUTO VRB01KT 9999 // FEW250/// 12/09 Q1023
00:50
V
12 °C 10 km+ - 360° 360° 0 kt METAR EDTY 132250Z AUTO 00000KT 9999 // SCT250/// 12/09 Q1023
00:20
V
11 °C 10 km+ - Var Var 2 kt METAR EDTY 132220Z AUTO VRB02KT 9999 // NCD 11/09 Q1023

13 avril 2024

Temps Code Temps Temp. Vue Base cloud Vent METAR/SPECI
23:50
V
13 °C 10 km+ - 360° 360° 0 kt METAR EDTY 132150Z AUTO 00000KT 9999 // NCD 13/10 Q1023
23:20
V
13 °C 10 km+ - Var Var 1 kt METAR EDTY 132120Z AUTO VRB01KT 9999 // NCD 13/10 Q1023
22:50
V
13 °C 10 km+ - Var Var 1 kt METAR EDTY 132050Z AUTO VRB01KT 9999 // NCD 13/10 Q1023
22:20
V
14 °C 10 km+ - Var Var 1 kt METAR EDTY 132020Z AUTO VRB01KT 9999 // NCD 14/11 Q1023
21:50
V
15 °C 10 km+ - 200° 200° 2 kt METAR EDTY 131950Z AUTO 20002KT 9999 // NCD 15/09 Q1024
21:20
V
19 °C 10 km+ - 160° 160° 3 kt METAR EDTY 131920Z AUTO 16003KT 9999 // NCD 19/11 Q1024
20:50
V
18 °C 10 km+ - Var Var 1 kt METAR EDTY 131850Z AUTO VRB01KT 9999 // NCD 18/11 Q1024
20:20
V
18 °C 10 km+ - 010° 010° 2 kt METAR EDTY 131820Z AUTO 01002KT 9999 // NCD 18/11 Q1024
19:50
V
20 °C 10 km+ - 350° 350° 2 kt METAR EDTY 131750Z 35002KT CAVOK 20/12 Q1024
19:20
V
20 °C 10 km+ - 350° 350° 3 kt METAR EDTY 131720Z 35003KT CAVOK 20/12 Q1024
18:50
V
21 °C 10 km+ - 350° 350° 6 kt METAR EDTY 131650Z 35006KT CAVOK 21/12 Q1024
18:20
V
22 °C 10 km+ - 330° 330° 6 kt METAR EDTY 131620Z 33006KT CAVOK 22/12 Q1024
17:50
V
23 °C 10 km+ - Var Var 2 kt METAR EDTY 131550Z VRB02KT CAVOK 23/11 Q1025
17:20
V
23 °C 10 km+ - Var Var 3 kt METAR EDTY 131520Z VRB03KT CAVOK 23/12 Q1025
16:50
V
23 °C 10 km+ - 010° 010° 5 kt METAR EDTY 131450Z 01005KT 320V050 CAVOK 23/11 Q1025
16:20
V
23 °C 10 km+ - 260° 260° 7 kt METAR EDTY 131420Z 26007KT 220V320 CAVOK 23/11 Q1026
15:50
V
23 °C 10 km+ - 270° 270° 7 kt METAR EDTY 131350Z 27007KT 240V300 CAVOK 23/10 Q1026
15:20
V
23 °C 10 km+ - 270° 270° 5 kt METAR EDTY 131320Z 27005KT 210V310 CAVOK 23/11 Q1026
14:50
V
23 °C 10 km+ - 260° 260° 6 kt METAR EDTY 131250Z 26006KT 230V300 CAVOK 23/09 Q1027
14:20
V
22 °C 10 km+ - 220° 220° 7 kt METAR EDTY 131220Z 22007KT 190V270 CAVOK 22/09 Q1027
13:50
V
21 °C 10 km+ - 220° 220° 5 kt METAR EDTY 131150Z 22005KT 170V260 CAVOK 21/09 Q1028
13:20
V
21 °C 10 km+ - 240° 240° 4 kt METAR EDTY 131120Z 24004KT 190V310 CAVOK 21/09 Q1028
12:50
V
20 °C 10 km+ - 240° 240° 5 kt METAR EDTY 131050Z 24005KT 200V280 CAVOK 20/09 Q1028
12:20
V
20 °C 10 km+ - 240° 240° 5 kt METAR EDTY 131020Z 24005KT 200V270 CAVOK 20/09 Q1029
11:50
V
20 °C 10 km+ - 220° 220° 4 kt METAR EDTY 130950Z 22004KT 160V280 CAVOK 20/11 Q1029
11:20
V
18 °C 10 km+ - 220° 220° 3 kt METAR EDTY 130920Z 22003KT 180V300 CAVOK 18/08 Q1029
10:50
V
18 °C 10 km+ - Var Var 3 kt METAR EDTY 130850Z VRB03KT CAVOK 18/09 Q1030
10:20
V
16 °C 10 km+ - 230° 230° 3 kt METAR EDTY 130820Z 23003KT 180V270 CAVOK 16/08 Q1030
09:50
V
15 °C 10 km+ - Var Var 1 kt METAR EDTY 130750Z VRB01KT CAVOK 15/09 Q1030
09:20
V
12 °C 10 km+ - Var Var 1 kt METAR EDTY 130720Z VRB01KT CAVOK 12/09 Q1030
08:50
V
11 °C 10 km+ - 360° 360° 0 kt METAR EDTY 130650Z 00000KT CAVOK 11/08 Q1030
08:20
V
9 °C 10 km+ - 080° 080° 2 kt METAR EDTY 130620Z AUTO 08002KT 9999 // NCD 09/07 Q1030
07:50
V
6 °C 10 km+ - 110° 110° 3 kt METAR EDTY 130550Z AUTO 11003KT 9999 // FEW230/// 06/05 Q1030
Signaler les modifications